createdAt,value
2022-08-11T00:02:45.199Z,16.74
2022-08-11T00:05:22.069Z,16.71
2022-08-11T00:07:55.817Z,16.69
2022-08-11T00:10:31.105Z,16.64
2022-08-11T00:13:04.399Z,16.59
2022-08-11T00:15:48.648Z,16.55
2022-08-11T00:18:21.565Z,16.51
2022-08-11T00:20:53.455Z,16.49
2022-08-11T00:23:25.043Z,16.46
2022-08-11T00:25:55.540Z,16.44
2022-08-11T00:28:33.184Z,16.39
2022-08-11T00:31:12.370Z,16.37
2022-08-11T00:33:45.477Z,16.35
2022-08-11T00:36:25.377Z,16.30
2022-08-11T00:39:03.145Z,16.27
2022-08-11T00:41:39.178Z,16.24
2022-08-11T00:44:36.971Z,16.22
2022-08-11T00:47:19.244Z,16.20
2022-08-11T00:50:04.446Z,16.17
2022-08-11T00:53:19.045Z,16.14
2022-08-11T00:56:17.327Z,16.10
2022-08-11T00:59:34.870Z,16.04
2022-08-11T01:02:15.347Z,15.97
2022-08-11T01:05:08.546Z,15.93
2022-08-11T01:08:16.065Z,15.89
2022-08-11T01:11:34.623Z,15.86
2022-08-11T01:14:36.454Z,15.82
2022-08-11T01:17:32.629Z,15.80
2022-08-11T01:20:46.537Z,15.77
2022-08-11T01:23:43.796Z,15.74
2022-08-11T01:26:54.819Z,15.74
2022-08-11T01:29:52.068Z,15.73
2022-08-11T01:33:10.377Z,15.70
2022-08-11T01:36:07.577Z,15.65
2022-08-11T01:38:55.821Z,15.60
2022-08-11T01:42:11.986Z,15.56
2022-08-11T01:45:18.816Z,15.53
2022-08-11T01:48:03.046Z,15.53
2022-08-11T01:50:54.868Z,15.53
2022-08-11T01:53:49.537Z,15.52
2022-08-11T01:56:47.715Z,15.47
2022-08-11T01:59:25.556Z,15.45
2022-08-11T02:02:46.262Z,15.43
2022-08-11T02:05:46.184Z,15.40
2022-08-11T02:08:33.276Z,15.39
2022-08-11T02:11:35.871Z,15.37
2022-08-11T02:14:25.133Z,15.33
2022-08-11T02:17:09.812Z,15.29
2022-08-11T02:20:09.671Z,15.27
2022-08-11T02:23:10.268Z,15.26
2022-08-11T02:25:54.409Z,15.26
2022-08-11T02:28:34.634Z,15.24
2022-08-11T02:32:23.909Z,15.24
2022-08-11T02:34:34.232Z,15.23
2022-08-11T02:37:16.068Z,15.20
2022-08-11T02:40:14.268Z,15.14
2022-08-11T02:43:07.121Z,15.06
2022-08-11T02:45:54.607Z,14.99
2022-08-11T02:48:55.126Z,14.95
2022-08-11T02:51:33.906Z,14.90
2022-08-11T02:54:18.591Z,14.86
2022-08-11T02:56:58.698Z,14.82
2022-08-11T02:59:53.514Z,14.77
2022-08-11T03:03:07.411Z,14.74
2022-08-11T03:05:51.000Z,14.72
2022-08-11T03:08:55.612Z,14.69
2022-08-11T03:12:10.389Z,14.67
2022-08-11T03:15:07.020Z,14.65
2022-08-11T03:17:42.266Z,14.66
2022-08-11T03:20:37.938Z,14.65
2022-08-11T03:23:19.763Z,14.65
2022-08-11T03:26:02.697Z,14.64
2022-08-11T03:28:38.386Z,14.64
2022-08-11T03:31:26.443Z,14.64
2022-08-11T03:34:08.307Z,14.65
2022-08-11T03:37:36.277Z,14.66
2022-08-11T03:40:16.819Z,14.67
2022-08-11T03:43:00.316Z,14.65
2022-08-11T03:45:41.194Z,14.64
2022-08-11T03:48:21.034Z,14.60
2022-08-11T03:51:19.157Z,14.58
2022-08-11T03:54:19.381Z,14.55
2022-08-11T03:57:36.520Z,14.54
2022-08-11T04:00:40.190Z,14.54
2022-08-11T04:03:47.345Z,14.55
2022-08-11T04:06:59.608Z,14.57
2022-08-11T04:10:10.119Z,14.63
2022-08-11T04:13:19.056Z,14.68
2022-08-11T04:16:24.837Z,14.75
2022-08-11T04:19:31.785Z,14.82
2022-08-11T04:25:51.106Z,15.08
2022-08-11T04:29:02.630Z,15.20
2022-08-11T04:31:51.435Z,15.31
2022-08-11T04:35:04.295Z,15.42
2022-08-11T04:38:07.993Z,15.57
2022-08-11T04:41:28.270Z,15.70
2022-08-11T04:44:52.191Z,15.86
2022-08-11T04:48:06.411Z,15.99
2022-08-11T04:51:17.348Z,16.07
2022-08-11T04:54:28.543Z,16.21
2022-08-11T04:57:23.487Z,16.32
2022-08-11T05:00:24.448Z,16.40
2022-08-11T05:03:34.486Z,16.45
2022-08-11T05:06:48.109Z,16.58
2022-08-11T05:09:34.130Z,16.66
2022-08-11T05:12:30.191Z,16.77
2022-08-11T05:15:21.928Z,16.90
2022-08-11T05:18:21.681Z,16.97
2022-08-11T05:21:22.343Z,17.03
2022-08-11T05:24:19.871Z,17.14
2022-08-11T05:27:14.013Z,17.27
2022-08-11T05:30:07.557Z,17.39
2022-08-11T05:33:01.998Z,17.51
2022-08-11T05:36:01.914Z,17.61
2022-08-11T05:38:56.627Z,17.68
2022-08-11T05:41:52.098Z,17.77
2022-08-11T05:44:44.511Z,17.85
2022-08-11T05:47:49.263Z,17.89
2022-08-11T05:50:44.947Z,17.93
2022-08-11T05:53:46.215Z,18.01
2022-08-11T05:56:21.247Z,18.14
2022-08-11T05:59:06.630Z,18.22
2022-08-11T06:01:45.588Z,18.28
2022-08-11T06:04:28.063Z,18.34
2022-08-11T06:07:06.590Z,18.38
2022-08-11T06:09:39.777Z,18.45
2022-08-11T06:12:23.184Z,18.55
2022-08-11T06:14:59.045Z,18.67
2022-08-11T06:17:38.421Z,18.74
2022-08-11T06:20:18.051Z,18.84
2022-08-11T06:23:01.210Z,18.91
2022-08-11T06:25:38.945Z,18.98
2022-08-11T06:28:11.319Z,19.06
2022-08-11T06:30:49.179Z,19.15
2022-08-11T06:33:31.294Z,19.24
2022-08-11T06:36:09.025Z,19.35
2022-08-11T06:38:57.071Z,19.46
2022-08-11T06:41:41.825Z,19.55
2022-08-11T06:44:24.911Z,19.63
2022-08-11T06:47:10.728Z,19.70
2022-08-11T06:50:04.947Z,19.78
2022-08-11T06:52:41.162Z,19.86
2022-08-11T06:55:56.620Z,19.94
2022-08-11T06:58:53.327Z,20.05
2022-08-11T07:01:51.772Z,20.18
2022-08-11T07:04:35.828Z,20.26
2022-08-11T07:07:31.457Z,20.35
2022-08-11T07:10:55.147Z,20.46
2022-08-11T07:13:50.043Z,20.58
2022-08-11T07:16:39.166Z,20.67
2022-08-11T07:19:37.129Z,20.75
2022-08-11T07:22:31.050Z,20.86
2022-08-11T07:25:27.089Z,20.98
2022-08-11T07:28:25.674Z,21.12
2022-08-11T07:31:08.239Z,21.24
2022-08-11T07:34:07.985Z,21.36
2022-08-11T07:36:44.484Z,21.50
2022-08-11T07:39:39.783Z,21.63
2022-08-11T07:42:17.726Z,21.77
2022-08-11T07:45:19.804Z,21.90
2022-08-11T07:48:15.005Z,22.01
2022-08-11T07:51:07.562Z,22.24
2022-08-11T07:53:58.619Z,22.44
2022-08-11T07:56:55.223Z,22.60
2022-08-11T08:00:04.106Z,22.77
2022-08-11T08:02:55.795Z,22.92
2022-08-11T08:05:54.515Z,23.06
2022-08-11T08:08:46.486Z,23.18
2022-08-11T08:11:42.239Z,23.35
2022-08-11T08:14:39.042Z,23.55
2022-08-11T08:17:35.694Z,23.69
2022-08-11T08:20:17.022Z,23.87
2022-08-11T08:22:54.059Z,24.00
2022-08-11T08:25:37.282Z,24.09
2022-08-11T08:28:19.590Z,24.19
2022-08-11T08:30:53.285Z,24.32
2022-08-11T08:33:57.718Z,24.37
2022-08-11T08:36:32.954Z,24.43
2022-08-11T08:39:07.399Z,24.50
2022-08-11T08:41:44.609Z,24.59
2022-08-11T08:44:37.716Z,24.67
2022-08-11T08:47:14.897Z,24.71
2022-08-11T08:52:21.129Z,24.74
2022-08-11T08:53:11.631Z,24.85
2022-08-11T08:55:46.396Z,24.92
2022-08-11T08:58:22.652Z,25.00
2022-08-11T09:00:57.776Z,25.10
2022-08-11T09:04:01.819Z,25.28
2022-08-11T09:06:36.512Z,25.42
2022-08-11T09:09:12.581Z,25.50
2022-08-11T09:11:54.294Z,25.65
2022-08-11T09:14:50.941Z,25.81
2022-08-11T09:17:28.742Z,26.01
2022-08-11T09:20:08.031Z,25.99
2022-08-11T09:26:19.236Z,26.00
2022-08-11T09:29:00.293Z,25.98
2022-08-11T09:31:40.376Z,25.87
2022-08-11T09:34:16.222Z,25.79
2022-08-11T09:37:09.644Z,25.85
2022-08-11T09:40:09.944Z,26.01
2022-08-11T09:43:02.899Z,26.08
2022-08-11T09:45:40.212Z,26.18
2022-08-11T09:48:17.259Z,26.37
2022-08-11T09:50:57.917Z,26.56
2022-08-11T09:53:40.516Z,26.76
2022-08-11T09:56:35.604Z,26.95
2022-08-11T09:59:12.043Z,27.17
2022-08-11T10:01:51.149Z,27.05
2022-08-11T10:04:36.094Z,26.73
2022-08-11T10:07:11.931Z,26.49
2022-08-11T10:10:00.190Z,26.25
2022-08-11T10:12:38.716Z,26.20
2022-08-11T10:15:38.371Z,26.29
2022-08-11T10:18:33.591Z,26.23
2022-08-11T10:21:13.128Z,26.07
2022-08-11T10:24:07.891Z,25.96
2022-08-11T10:26:55.267Z,25.91
2022-08-11T10:29:49.641Z,26.02
2022-08-11T10:32:49.370Z,26.20
2022-08-11T10:35:35.043Z,26.55
2022-08-11T10:38:11.005Z,26.92
2022-08-11T10:41:07.949Z,27.28
2022-08-11T10:44:02.375Z,27.66
2022-08-11T10:46:56.514Z,27.97
2022-08-11T10:49:33.966Z,28.15
2022-08-11T10:52:30.862Z,28.36
2022-08-11T10:55:22.735Z,28.58
2022-08-11T10:58:15.605Z,28.81
2022-08-11T11:00:54.239Z,29.05
2022-08-11T11:03:32.959Z,29.02
2022-08-11T11:06:28.341Z,29.07
2022-08-11T11:09:09.779Z,29.34
2022-08-11T11:12:16.956Z,29.14
2022-08-11T11:15:19.589Z,28.62
2022-08-11T11:18:02.560Z,28.44
2022-08-11T11:20:52.339Z,28.61
2022-08-11T11:23:30.631Z,29.05
2022-08-11T11:26:37.044Z,29.16
2022-08-11T11:29:41.348Z,28.84
2022-08-11T11:32:33.369Z,28.37
2022-08-11T11:35:30.557Z,27.94
2022-08-11T11:38:13.843Z,27.64
2022-08-11T11:41:12.551Z,27.44
2022-08-11T11:43:48.472Z,27.43
2022-08-11T11:46:39.046Z,27.72
2022-08-11T11:49:47.691Z,28.25
2022-08-11T11:52:27.240Z,28.64
2022-08-11T11:55:03.638Z,29.06
2022-08-11T11:57:58.582Z,29.46
2022-08-11T12:00:56.466Z,29.73
2022-08-11T12:03:32.118Z,30.05
2022-08-11T12:06:10.769Z,30.17
2022-08-11T12:08:54.154Z,30.33
2022-08-11T12:12:10.725Z,30.63
2022-08-11T12:15:00.695Z,30.40
2022-08-11T12:17:44.540Z,29.87
2022-08-11T12:20:31.800Z,29.33
2022-08-11T12:23:26.397Z,28.74
2022-08-11T12:26:28.204Z,28.19
2022-08-11T12:32:23.500Z,27.91
2022-08-11T12:35:08.618Z,28.15
2022-08-11T12:38:03.658Z,28.49
2022-08-11T12:41:16.469Z,28.94
2022-08-11T12:44:20.156Z,29.49
2022-08-11T12:47:07.196Z,30.07
2022-08-11T12:50:23.223Z,30.18
2022-08-11T12:53:01.178Z,30.05
2022-08-11T12:56:03.717Z,29.70
2022-08-11T12:58:49.636Z,29.11
2022-08-11T13:02:03.181Z,28.52
2022-08-11T13:05:09.595Z,28.12
2022-08-11T13:07:55.379Z,27.79
2022-08-11T13:10:50.082Z,27.67
2022-08-11T13:13:54.065Z,27.65
2022-08-11T13:16:56.005Z,27.78
2022-08-11T13:19:49.852Z,27.95
2022-08-11T13:25:52.306Z,27.72
2022-08-11T13:32:18.393Z,27.55
2022-08-11T13:35:08.487Z,27.56
2022-08-11T13:38:17.819Z,27.63
2022-08-11T13:41:46.142Z,27.89
2022-08-11T13:44:36.768Z,28.16
2022-08-11T13:47:29.141Z,28.32
2022-08-11T13:50:09.691Z,28.52
2022-08-11T13:53:02.478Z,28.82
2022-08-11T13:55:52.128Z,29.00
2022-08-11T13:58:40.632Z,29.09
2022-08-11T14:02:19.561Z,29.14
2022-08-11T14:04:36.100Z,29.05
2022-08-11T14:07:18.335Z,29.12
2022-08-11T14:10:06.827Z,29.15
2022-08-11T14:13:06.779Z,29.04
2022-08-11T14:15:48.434Z,28.82
2022-08-11T14:18:37.623Z,28.51
2022-08-11T14:21:36.914Z,28.19
2022-08-11T14:24:30.417Z,27.87
2022-08-11T14:27:39.078Z,27.53
2022-08-11T14:30:33.549Z,27.16
2022-08-11T14:33:16.893Z,26.77
2022-08-11T14:35:59.647Z,26.48
2022-08-11T14:38:45.393Z,26.20
2022-08-11T14:42:10.387Z,26.02
2022-08-11T14:45:03.251Z,26.01
2022-08-11T14:47:58.157Z,26.04
2022-08-11T14:50:42.637Z,26.14
2022-08-11T14:53:30.951Z,26.18
2022-08-11T14:56:31.109Z,26.21
2022-08-11T14:59:26.019Z,26.36
2022-08-11T15:02:31.568Z,26.80
2022-08-11T15:05:09.854Z,26.96
2022-08-11T15:08:02.223Z,27.02
2022-08-11T15:10:39.709Z,27.15
2022-08-11T15:13:17.879Z,27.41
2022-08-11T15:16:22.157Z,27.78
2022-08-11T15:19:09.219Z,28.07
2022-08-11T15:22:02.896Z,28.23
2022-08-11T15:24:38.080Z,28.50
2022-08-11T15:27:36.657Z,28.78
2022-08-11T15:30:43.001Z,29.12
2022-08-11T15:33:36.160Z,29.48
2022-08-11T15:36:42.143Z,29.69
2022-08-11T15:39:30.893Z,29.81
2022-08-11T15:42:27.718Z,29.92
2022-08-11T15:45:23.228Z,30.15
2022-08-11T15:48:05.867Z,30.31
2022-08-11T15:50:46.108Z,30.54
2022-08-11T15:53:35.255Z,30.76
2022-08-11T15:56:15.365Z,30.79
2022-08-11T15:59:10.580Z,30.63
2022-08-11T16:02:30.369Z,30.41
2022-08-11T16:05:07.909Z,30.40
2022-08-11T16:07:49.858Z,30.34
2022-08-11T16:10:29.821Z,30.43
2022-08-11T16:13:28.661Z,30.63
2022-08-11T16:16:21.968Z,30.71
2022-08-11T16:19:25.866Z,30.69
2022-08-11T16:22:04.255Z,30.71
2022-08-11T16:27:01.288Z,30.66
2022-08-11T16:27:41.781Z,30.43
2022-08-11T16:30:20.124Z,30.45
2022-08-11T16:33:00.224Z,30.46
2022-08-11T16:36:12.838Z,30.49
2022-08-11T16:38:49.307Z,30.45
2022-08-11T16:41:46.621Z,30.44
2022-08-11T16:44:51.585Z,30.37
2022-08-11T16:48:03.154Z,30.07
2022-08-11T16:50:24.859Z,29.72
2022-08-11T16:53:01.902Z,29.48
2022-08-11T16:55:51.540Z,29.14
2022-08-11T16:58:54.347Z,28.78
2022-08-11T17:01:45.185Z,28.27
2022-08-11T17:04:44.327Z,27.75
2022-08-11T17:07:49.501Z,27.23
2022-08-11T17:10:51.868Z,26.69
2022-08-11T17:13:36.959Z,26.29
2022-08-11T17:16:13.409Z,26.04
2022-08-11T17:18:59.610Z,25.89
2022-08-11T17:22:00.516Z,25.81
2022-08-11T17:24:46.321Z,25.68
2022-08-11T17:27:52.386Z,25.40
2022-08-11T17:30:50.692Z,25.18
2022-08-11T17:33:47.464Z,24.96
2022-08-11T17:36:31.188Z,24.67
2022-08-11T17:39:43.517Z,24.42
2022-08-11T17:42:41.235Z,24.22
2022-08-11T17:45:48.464Z,24.08
2022-08-11T17:48:30.293Z,23.92
2022-08-11T17:51:12.909Z,23.79
2022-08-11T17:54:24.376Z,23.66
2022-08-11T17:57:27.845Z,23.54
2022-08-11T18:00:14.446Z,23.44
2022-08-11T18:03:15.468Z,23.40
2022-08-11T18:06:04.747Z,23.37
2022-08-11T18:09:07.542Z,23.34
2022-08-11T18:12:21.560Z,23.31
2022-08-11T18:18:36.085Z,23.20
2022-08-11T18:21:26.070Z,23.15
2022-08-11T18:24:16.568Z,23.12
2022-08-11T18:27:05.833Z,23.05
2022-08-11T18:30:00.229Z,23.01
2022-08-11T18:33:24.990Z,22.97
2022-08-11T18:36:13.782Z,22.93
2022-08-11T18:39:10.017Z,22.84
2022-08-11T18:42:02.967Z,22.72
2022-08-11T18:44:53.933Z,22.62
2022-08-11T18:47:55.448Z,22.51
2022-08-11T18:51:30.841Z,22.41
2022-08-11T18:54:25.453Z,22.35
2022-08-11T18:57:17.797Z,22.35
2022-08-11T19:00:16.488Z,22.28
2022-08-11T19:03:08.726Z,22.16
2022-08-11T19:06:31.773Z,22.08
2022-08-11T19:09:18.555Z,21.96
2022-08-11T19:12:18.205Z,21.86
2022-08-11T19:15:10.792Z,21.82
2022-08-11T19:18:03.940Z,21.82
2022-08-11T19:20:56.988Z,21.82
2022-08-11T19:24:01.372Z,21.76
2022-08-11T19:26:54.583Z,21.69
2022-08-11T19:30:05.324Z,21.63
2022-08-11T19:32:59.567Z,21.58
2022-08-11T19:35:55.905Z,21.52
2022-08-11T19:38:46.355Z,21.46
2022-08-11T19:41:57.637Z,21.40
2022-08-11T19:44:50.282Z,21.39
2022-08-11T19:47:42.877Z,21.37
2022-08-11T19:50:37.839Z,21.39
2022-08-11T19:53:33.847Z,21.42
2022-08-11T19:56:25.776Z,21.44
2022-08-11T19:59:23.243Z,21.45
2022-08-11T20:02:14.688Z,21.43
2022-08-11T20:05:05.706Z,21.40
2022-08-11T20:08:03.253Z,21.36
2022-08-11T20:10:56.093Z,21.33
2022-08-11T20:13:50.032Z,21.33
2022-08-11T20:16:42.617Z,21.31
2022-08-11T20:19:55.889Z,21.27
2022-08-11T20:22:51.823Z,21.21
2022-08-11T20:25:44.219Z,21.19
2022-08-11T20:28:35.529Z,21.16
2022-08-11T20:31:27.882Z,21.14
2022-08-11T20:34:20.104Z,21.11
2022-08-11T20:37:11.011Z,21.08
2022-08-11T20:40:08.533Z,21.06
2022-08-11T20:42:58.783Z,21.04
2022-08-11T20:45:55.230Z,21.02
2022-08-11T20:48:52.327Z,20.97
2022-08-11T20:51:42.921Z,20.94
2022-08-11T20:54:41.967Z,20.92
2022-08-11T20:58:00.097Z,20.89
2022-08-11T21:00:54.854Z,20.85
2022-08-11T21:03:54.419Z,20.81
2022-08-11T21:06:53.275Z,20.79
2022-08-11T21:09:58.446Z,20.77
2022-08-11T21:12:55.419Z,20.76
2022-08-11T21:16:03.005Z,20.76
2022-08-11T21:18:55.758Z,20.76
2022-08-11T21:21:51.728Z,20.77
2022-08-11T21:24:54.357Z,20.78
2022-08-11T21:28:15.016Z,20.78
2022-08-11T21:31:19.501Z,20.77
2022-08-11T21:34:08.779Z,20.76
2022-08-11T21:37:01.032Z,20.76
2022-08-11T21:39:55.956Z,20.76
2022-08-11T21:42:45.013Z,20.74
2022-08-11T21:45:39.521Z,20.71
2022-08-11T21:48:32.211Z,20.69
2022-08-11T21:51:25.644Z,20.68
2022-08-11T21:54:19.832Z,20.66
2022-08-11T21:57:13.755Z,20.66
2022-08-11T22:00:31.006Z,20.64
2022-08-11T22:03:26.896Z,20.62
2022-08-11T22:06:19.765Z,20.61
2022-08-11T22:09:20.891Z,20.59
2022-08-11T22:12:33.836Z,20.58
2022-08-11T22:15:28.253Z,20.57
2022-08-11T22:18:22.616Z,20.56
2022-08-11T22:22:01.461Z,20.53
2022-08-11T22:24:30.251Z,20.50
2022-08-11T22:27:22.588Z,20.49
2022-08-11T22:30:14.854Z,20.48
2022-08-11T22:33:05.616Z,20.45
2022-08-11T22:35:56.731Z,20.42
2022-08-11T22:38:48.251Z,20.40
2022-08-11T22:41:39.259Z,20.35
2022-08-11T22:44:30.815Z,20.29
2022-08-11T22:47:22.250Z,20.24
2022-08-11T22:50:18.631Z,20.20
2022-08-11T22:53:09.874Z,20.15
2022-08-11T22:56:01.419Z,20.10
2022-08-11T22:58:52.119Z,20.06
2022-08-11T23:01:54.775Z,20.02
2022-08-11T23:04:54.156Z,19.99
2022-08-11T23:07:49.895Z,19.97
2022-08-11T23:10:45.595Z,19.96
2022-08-11T23:13:37.174Z,19.97
2022-08-11T23:16:27.673Z,19.97
2022-08-11T23:20:07.155Z,19.97
2022-08-11T23:22:37.169Z,19.96
2022-08-11T23:25:40.622Z,19.93
2022-08-11T23:28:37.666Z,19.94
2022-08-11T23:31:43.037Z,19.94
2022-08-11T23:35:04.190Z,19.94
2022-08-11T23:37:55.518Z,19.94
2022-08-11T23:40:49.499Z,19.95
2022-08-11T23:43:45.439Z,19.95
2022-08-11T23:46:37.256Z,19.95
2022-08-11T23:49:27.770Z,19.95
2022-08-11T23:52:18.331Z,19.95
2022-08-11T23:55:10.924Z,19.95
2022-08-11T23:58:01.137Z,19.97
